Time;durP1;ratioP1;P1;durP2;ratioP2;P2;SDS_P1;SDS_P2;PMS_P1;PMS_P2;Temp;Humidity;BMP_temperature;BMP_pressure;BME280_temperature;BME280_humidity;BME280_pressure;Samples;Min_cycle;Max_cycle;Signal;HPM_P1;HPM_P2
2023/07/07 00:00:04;;;;;;;1.10;0.40;;;;;;;11.77;100.00;100900.97;5039597;28;20026;-57
2023/07/07 00:02:29;;;;;;;1.38;0.50;;;;;;;11.69;100.00;100909.06;5033390;28;20052;-54
2023/07/07 00:04:55;;;;;;;1.30;0.22;;;;;;;11.62;100.00;100905.53;5034385;28;20413;-57
2023/07/07 00:07:20;;;;;;;1.10;0.22;;;;;;;11.55;100.00;100908.91;5043816;28;20037;-57
2023/07/07 00:09:46;;;;;;;0.47;0.30;;;;;;;11.46;100.00;100912.72;5039620;28;20048;-58
2023/07/07 00:12:13;;;;;;;0.68;0.40;;;;;;;11.38;100.00;100910.13;5044552;28;20029;-54
2023/07/07 00:14:38;;;;;;;0.63;0.43;;;;;;;11.35;100.00;100913.97;5037559;28;20121;-53
2023/07/07 00:17:04;;;;;;;0.55;0.55;;;;;;;11.32;100.00;100910.88;5053897;28;20139;-56
2023/07/07 00:19:33;;;;;;;2.53;0.47;;;;;;;11.26;100.00;100911.66;5036734;28;20107;-56
2023/07/07 00:22:00;;;;;;;3.05;0.63;;;;;;;11.22;100.00;100907.69;5042897;28;20041;-57
2023/07/07 00:24:25;;;;;;;0.52;0.40;;;;;;;11.18;100.00;100909.91;5031655;28;20485;-54
2023/07/07 00:26:51;;;;;;;1.52;0.50;;;;;;;11.06;100.00;100906.88;5041373;28;20040;-56
2023/07/07 00:29:17;;;;;;;2.65;0.77;;;;;;;11.27;100.00;100906.13;5048764;28;20047;-55
2023/07/07 00:31:42;;;;;;;1.08;0.40;;;;;;;11.35;100.00;100910.50;5046502;28;20029;-54
2023/07/07 00:34:07;;;;;;;0.65;0.50;;;;;;;11.31;100.00;100911.91;5027005;28;20525;-57
2023/07/07 00:36:33;;;;;;;1.75;0.88;;;;;;;11.21;100.00;100917.50;5029788;28;20471;-57
2023/07/07 00:38:58;;;;;;;1.13;0.63;;;;;;;11.09;100.00;100913.66;5047960;28;20084;-57
2023/07/07 00:41:24;;;;;;;1.65;0.50;;;;;;;11.08;100.00;100917.31;5035458;28;20089;-54
2023/07/07 00:44:10;;;;;;;2.28;0.90;;;;;;;11.07;100.00;100915.66;5032668;28;20394;-56
2023/07/07 00:46:37;;;;;;;0.40;0.40;;;;;;;11.01;100.00;100917.22;5029829;28;20029;-56
2023/07/07 00:49:08;;;;;;;2.17;0.40;;;;;;;10.93;100.00;100914.66;5039645;28;20041;-54
2023/07/07 00:51:40;;;;;;;1.45;0.40;;;;;;;10.88;100.00;100922.34;5035731;28;20073;-56
2023/07/07 00:54:11;;;;;;;0.40;0.20;;;;;;;10.86;100.00;100921.69;5028442;28;20055;-56
2023/07/07 00:56:40;;;;;;;0.43;0.32;;;;;;;10.85;100.00;100920.06;5034839;28;20513;-55
2023/07/07 00:59:14;;;;;;;0.82;0.32;;;;;;;10.72;100.00;100928.66;5045761;28;20029;-56
2023/07/07 01:01:40;;;;;;;0.88;0.38;;;;;;;10.64;100.00;100924.25;5028097;28;20052;-57
2023/07/07 01:04:10;;;;;;;0.40;0.40;;;;;;;10.63;100.00;100914.63;5030809;28;20120;-56
2023/07/07 01:06:41;;;;;;;2.17;0.87;;;;;;;10.65;100.00;100919.75;5038383;28;20036;-54
2023/07/07 01:09:08;;;;;;;1.73;1.10;;;;;;;10.52;100.00;100915.06;5040513;28;20417;-57
2023/07/07 01:11:35;;;;;;;3.53;1.30;;;;;;;10.40;100.00;100927.94;5039524;28;20041;-53
2023/07/07 01:14:04;;;;;;;0.80;0.73;;;;;;;10.32;100.00;100922.69;5030445;28;20029;-53
2023/07/07 01:17:09;;;;;;;0.40;0.20;;;;;;;10.34;100.00;100927.81;5040073;28;20033;-54
2023/07/07 01:20:12;;;;;;;1.17;1.08;;;;;;;10.39;100.00;100923.63;5034886;28;20033;-53
2023/07/07 01:23:23;;;;;;;2.20;1.05;;;;;;;10.36;100.00;100928.47;5037747;28;20077;-58
2023/07/07 01:25:57;;;;;;;0.85;0.50;;;;;;;10.19;100.00;100931.22;5041439;28;20536;-55
2023/07/07 01:28:53;;;;;;;1.05;0.68;;;;;;;10.24;100.00;100926.19;5037618;28;21222;-53
2023/07/07 01:31:43;;;;;;;0.95;0.55;;;;;;;10.30;100.00;100926.53;5032595;28;20061;-52
2023/07/07 01:34:12;;;;;;;0.30;0.30;;;;;;;10.22;100.00;100920.28;5035075;28;20061;-54
2023/07/07 01:36:37;;;;;;;1.27;0.35;;;;;;;10.14;100.00;100925.63;5040013;28;20036;-54
2023/07/07 01:39:03;;;;;;;1.45;0.50;;;;;;;10.13;100.00;100931.94;5034686;28;20736;-53
2023/07/07 01:42:03;;;;;;;0.65;0.32;;;;;;;10.09;100.00;100930.63;5034504;28;20086;-56
2023/07/07 01:45:05;;;;;;;0.50;0.50;;;;;;;10.18;100.00;100928.75;5036003;28;20405;-55
2023/07/07 01:47:38;;;;;;;0.47;0.40;;;;;;;10.19;100.00;100928.56;5031979;28;20063;-55
2023/07/07 01:50:10;;;;;;;1.17;0.40;;;;;;;10.18;100.00;100931.41;5030358;28;20037;-51
2023/07/07 01:52:36;;;;;;;0.73;0.50;;;;;;;10.09;100.00;100933.28;5031177;28;20033;-55
2023/07/07 01:55:10;;;;;;;1.77;0.47;;;;;;;9.94;100.00;100943.81;5026581;28;20041;-54
2023/07/07 01:57:38;;;;;;;0.32;0.28;;;;;;;9.87;100.00;100950.81;5046719;28;20028;-56
2023/07/07 02:00:03;;;;;;;1.02;0.50;;;;;;;9.96;100.00;100944.44;5030508;28;20041;-53
2023/07/07 02:02:29;;;;;;;1.52;0.55;;;;;;;10.02;100.00;100940.31;5040180;28;20052;-56
2023/07/07 02:04:54;;;;;;;0.65;0.30;;;;;;;9.96;100.00;100938.34;5029605;28;20033;-53
2023/07/07 02:07:19;;;;;;;0.28;0.20;;;;;;;9.90;100.00;100929.28;5040075;28;20056;-54
2023/07/07 02:09:45;;;;;;;0.90;0.28;;;;;;;9.79;100.00;100937.63;5026022;28;20021;-53
2023/07/07 02:12:10;;;;;;;1.10;0.40;;;;;;;9.67;100.00;100939.84;5040114;28;20039;-57
2023/07/07 02:14:35;;;;;;;2.05;0.30;;;;;;;9.59;100.00;100932.75;5034181;28;20377;-55
2023/07/07 02:17:01;;;;;;;0.80;0.50;;;;;;;9.64;100.00;100932.25;5034744;28;20031;-51
2023/07/07 02:19:27;;;;;;;4.50;1.13;;;;;;;9.65;100.00;100930.41;5046124;28;20035;-55
2023/07/07 02:21:52;;;;;;;0.70;0.70;;;;;;;9.66;100.00;100934.72;5042183;28;20032;-51
2023/07/07 02:24:17;;;;;;;0.75;0.30;;;;;;;9.66;100.00;100926.78;5025689;28;20115;-56
2023/07/07 02:26:44;;;;;;;0.73;0.30;;;;;;;9.70;100.00;100923.59;5039954;28;20052;-57
2023/07/07 02:29:09;;;;;;;1.02;0.93;;;;;;;9.67;100.00;100928.41;5037572;28;20035;-56
2023/07/07 02:31:34;;;;;;;1.73;0.47;;;;;;;9.68;100.00;100930.91;5038562;28;20025;-59
2023/07/07 02:34:00;;;;;;;3.33;0.57;;;;;;;9.60;100.00;100922.97;5032289;28;20029;-51
2023/07/07 02:36:25;;;;;;;0.80;0.20;;;;;;;9.61;100.00;100924.66;5035138;28;20094;-51
2023/07/07 02:38:53;;;;;;;5.60;0.73;;;;;;;9.61;100.00;100919.34;5034507;28;20477;-56
2023/07/07 02:41:19;;;;;;;1.92;0.57;;;;;;;9.63;100.00;100917.38;5037413;28;20061;-57
2023/07/07 02:43:44;;;;;;;0.80;0.45;;;;;;;9.59;100.00;100916.88;5040908;28;20370;-55
2023/07/07 02:46:10;;;;;;;7.40;0.95;;;;;;;9.56;100.00;100919.06;5032745;28;20482;-56
2023/07/07 02:48:35;;;;;;;0.80;0.68;;;;;;;9.47;100.00;100917.44;5032674;28;20037;-57
2023/07/07 02:51:03;;;;;;;0.75;0.50;;;;;;;9.47;100.00;100918.25;5023739;28;20100;-51
2023/07/07 02:53:33;;;;;;;0.68;0.47;;;;;;;9.51;100.00;100916.09;5026645;28;20037;-57
2023/07/07 02:55:59;;;;;;;5.68;0.55;;;;;;;9.58;100.00;100919.72;5034148;28;20681;-56
2023/07/07 02:58:25;;;;;;;0.43;0.40;;;;;;;9.57;100.00;100912.75;5036447;28;20146;-52
2023/07/07 03:00:51;;;;;;;0.75;0.70;;;;;;;9.58;100.00;100909.13;5047211;28;20481;-54
2023/07/07 03:03:18;;;;;;;1.08;0.40;;;;;;;9.61;100.00;100914.06;5028945;28;20389;-56
2023/07/07 03:05:43;;;;;;;2.50;0.55;;;;;;;9.53;100.00;100908.81;5033709;28;20037;-54
2023/07/07 03:08:09;;;;;;;4.13;0.68;;;;;;;9.47;100.00;100912.13;5041652;28;20390;-52
2023/07/07 03:10:36;;;;;;;1.08;0.40;;;;;;;9.41;100.00;100911.00;5034415;28;20033;-55
2023/07/07 03:13:02;;;;;;;0.63;0.63;;;;;;;9.42;100.00;100901.25;5029481;28;20164;-53
2023/07/07 03:15:38;;;;;;;0.98;0.47;;;;;;;9.50;100.00;100904.69;5031975;28;20031;-54
2023/07/07 03:18:13;;;;;;;0.30;0.30;;;;;;;9.49;100.00;100899.56;5039462;28;20408;-52
2023/07/07 03:20:47;;;;;;;1.30;1.05;;;;;;;9.50;100.00;100904.69;5032352;28;20113;-55
2023/07/07 03:23:12;;;;;;;1.08;0.52;;;;;;;9.51;100.00;100908.16;5032911;28;20555;-54
2023/07/07 03:25:38;;;;;;;0.60;0.60;;;;;;;9.46;100.00;100899.91;5032243;28;20040;-56
2023/07/07 03:28:03;;;;;;;0.85;0.40;;;;;;;9.47;100.00;100891.78;5029169;28;20423;-53
2023/07/07 03:30:29;;;;;;;0.40;0.30;;;;;;;9.51;100.00;100895.75;5037054;28;20032;-56
2023/07/07 03:32:55;;;;;;;1.08;0.57;;;;;;;9.50;100.00;100895.91;5031462;28;20445;-53
2023/07/07 03:35:20;;;;;;;1.30;0.43;;;;;;;9.47;100.00;100891.78;5031649;28;20033;-55
2023/07/07 03:37:45;;;;;;;1.30;0.38;;;;;;;9.41;100.00;100891.66;5032337;28;20032;-54
2023/07/07 03:40:11;;;;;;;6.32;0.57;;;;;;;9.39;100.00;100890.00;5037639;28;20033;-55
2023/07/07 03:42:37;;;;;;;1.27;1.17;;;;;;;9.32;100.00;100894.34;5037480;28;20489;-54
2023/07/07 03:45:03;;;;;;;2.22;0.57;;;;;;;9.32;100.00;100896.16;5032633;28;21194;-57
2023/07/07 03:47:28;;;;;;;3.10;0.47;;;;;;;9.32;100.00;100886.41;5036885;28;20033;-55
2023/07/07 03:49:53;;;;;;;1.88;0.50;;;;;;;9.36;100.00;100887.69;5026669;28;20033;-55
2023/07/07 03:52:19;;;;;;;1.65;0.20;;;;;;;9.37;100.00;100892.03;5038569;28;20021;-53
2023/07/07 03:54:44;;;;;;;1.00;0.55;;;;;;;9.34;100.00;100897.63;5037217;28;20053;-52
2023/07/07 03:57:13;;;;;;;0.47;0.47;;;;;;;9.29;100.00;100892.06;5039720;28;20036;-53
2023/07/07 03:59:39;;;;;;;1.15;0.40;;;;;;;9.31;100.00;100897.97;5034862;28;20108;-55
2023/07/07 04:02:05;;;;;;;1.45;0.73;;;;;;;9.32;100.00;100898.78;5033705;28;20049;-51
2023/07/07 04:04:31;;;;;;;2.47;0.70;;;;;;;9.29;100.00;100905.28;5041866;28;20390;-55
2023/07/07 04:06:57;;;;;;;0.90;0.52;;;;;;;9.35;100.00;100901.94;5033355;28;20074;-52
2023/07/07 04:09:23;;;;;;;0.90;0.57;;;;;;;9.47;100.00;100896.25;5035415;28;20443;-54
2023/07/07 04:11:48;;;;;;;0.60;0.47;;;;;;;9.52;100.00;100893.91;5035857;28;20025;-54
2023/07/07 04:14:14;;;;;;;0.40;0.40;;;;;;;9.48;100.00;100897.94;5039043;28;20107;-51
2023/07/07 04:16:39;;;;;;;0.57;0.30;;;;;;;9.47;100.00;100897.06;5042549;28;20048;-54
2023/07/07 04:19:05;;;;;;;0.73;0.40;;;;;;;9.51;100.00;100903.69;5035996;28;20060;-54
2023/07/07 04:21:30;;;;;;;0.43;0.30;;;;;;;9.51;100.00;100898.38;5040979;28;20123;-57
2023/07/07 04:23:57;;;;;;;0.40;0.40;;;;;;;9.50;100.00;100901.19;5036652;28;20480;-57
2023/07/07 04:26:25;;;;;;;2.25;0.32;;;;;;;9.54;100.00;100898.03;5038924;28;20032;-55
2023/07/07 04:28:52;;;;;;;0.45;0.22;;;;;;;9.58;100.00;100898.53;5037970;28;20033;-55
2023/07/07 04:31:20;;;;;;;2.50;1.55;;;;;;;9.58;100.00;100898.53;5033327;28;20044;-53
2023/07/07 04:33:46;;;;;;;2.13;0.52;;;;;;;9.53;100.00;100904.34;5038487;28;20036;-51
2023/07/07 04:36:15;;;;;;;0.20;0.20;;;;;;;9.46;100.00;100906.03;5041545;28;20021;-56
2023/07/07 04:38:41;;;;;;;3.55;0.73;;;;;;;9.50;100.00;100899.41;5036265;28;20057;-52
2023/07/07 04:41:15;;;;;;;0.82;0.77;;;;;;;9.53;100.00;100896.41;5032127;28;20136;-52
2023/07/07 04:43:46;;;;;;;1.20;0.60;;;;;;;9.57;100.00;100904.81;5038229;28;20364;-55
2023/07/07 04:46:14;;;;;;;0.28;0.28;;;;;;;9.58;100.00;100906.47;5038516;28;20033;-55
2023/07/07 04:48:39;;;;;;;0.52;0.30;;;;;;;9.61;100.00;100914.06;5037480;28;20033;-56
2023/07/07 04:51:07;;;;;;;2.17;0.75;;;;;;;9.61;100.00;100908.75;5037494;28;20236;-55
2023/07/07 04:53:34;;;;;;;1.17;0.85;;;;;;;9.62;100.00;100915.69;5041126;28;20043;-57
2023/07/07 04:56:01;;;;;;;2.45;0.70;;;;;;;9.65;100.00;100909.22;5036310;28;20037;-55
2023/07/07 04:58:28;;;;;;;0.73;0.73;;;;;;;9.70;100.00;100917.47;5037654;28;20029;-53
2023/07/07 05:01:15;;;;;;;0.50;0.10;;;;;;;9.71;100.00;100917.31;5032505;28;20052;-55
2023/07/07 05:03:42;;;;;;;1.33;0.75;;;;;;;9.74;100.00;100914.31;5024328;28;20406;-56
2023/07/07 05:06:10;;;;;;;0.52;0.43;;;;;;;9.78;100.00;100914.78;5024728;28;20578;-57
2023/07/07 05:08:37;;;;;;;1.23;0.40;;;;;;;9.78;100.00;100912.13;5025738;28;20036;-54
2023/07/07 05:11:03;;;;;;;0.20;0.17;;;;;;;9.79;100.00;100917.25;5031088;28;20033;-56
2023/07/07 05:13:29;;;;;;;6.10;0.20;;;;;;;9.88;100.00;100919.84;5036627;28;20496;-56
2023/07/07 05:16:09;;;;;;;0.50;0.50;;;;;;;9.96;100.00;100922.44;5042802;28;20082;-51
2023/07/07 05:18:35;;;;;;;0.57;0.30;;;;;;;10.01;100.00;100925.38;5030144;28;20036;-54
2023/07/07 05:21:01;;;;;;;2.28;0.63;;;;;;;10.07;100.00;100919.41;5032143;28;20029;-55
2023/07/07 05:23:27;;;;;;;0.20;0.20;;;;;;;10.13;100.00;100923.97;5037917;28;20046;-53
2023/07/07 05:25:52;;;;;;;0.80;0.40;;;;;;;10.18;100.00;100924.28;5042453;28;20478;-55
2023/07/07 05:28:19;;;;;;;0.65;0.65;;;;;;;10.21;100.00;100926.56;5026686;28;20678;-56
2023/07/07 05:30:44;;;;;;;0.40;0.30;;;;;;;10.38;100.00;100927.31;5040605;28;20033;-56
2023/07/07 05:33:10;;;;;;;5.30;0.70;;;;;;;10.59;100.00;100931.09;5030959;28;20115;-56
2023/07/07 05:35:36;;;;;;;3.65;0.57;;;;;;;10.70;100.00;100934.13;5034179;28;20759;-51
2023/07/07 05:38:02;;;;;;;1.05;0.40;;;;;;;10.81;100.00;100934.69;5031622;28;20154;-55
2023/07/07 05:40:28;;;;;;;0.95;0.85;;;;;;;10.91;100.00;100938.72;5036902;28;20138;-55
2023/07/07 05:42:53;;;;;;;5.93;1.55;;;;;;;11.00;100.00;100926.19;5035195;28;20117;-54
2023/07/07 05:45:19;;;;;;;0.10;0.10;;;;;;;11.10;100.00;100921.44;5040790;28;20032;-55
2023/07/07 05:47:44;;;;;;;9.27;1.77;;;;;;;11.20;100.00;100915.00;5035390;28;20595;-56
2023/07/07 05:50:10;;;;;;;0.55;0.40;;;;;;;11.25;100.00;100918.75;5026794;28;20065;-56
2023/07/07 05:52:35;;;;;;;2.00;0.93;;;;;;;11.31;100.00;100918.03;5030235;28;20032;-54
2023/07/07 05:55:03;;;;;;;2.28;0.17;;;;;;;11.42;100.00;100916.72;5029281;28;20363;-54
2023/07/07 05:57:28;;;;;;;0.50;0.38;;;;;;;11.52;100.00;100914.59;5025996;28;20393;-52
2023/07/07 05:59:54;;;;;;;1.38;0.88;;;;;;;11.63;100.00;100917.78;5035805;28;20035;-56
2023/07/07 06:02:19;;;;;;;0.43;0.28;;;;;;;11.81;100.00;100915.53;5031748;28;20507;-53
2023/07/07 06:04:44;;;;;;;0.65;0.30;;;;;;;11.91;100.00;100923.25;5030933;28;20040;-56
2023/07/07 06:07:10;;;;;;;0.68;0.40;;;;;;;11.93;100.00;100918.56;5039504;28;20020;-55
2023/07/07 06:09:35;;;;;;;0.47;0.30;;;;;;;12.05;100.00;100918.88;5030095;28;20087;-58
2023/07/07 06:12:01;;;;;;;7.22;0.98;;;;;;;12.19;100.00;100920.66;5035594;28;20466;-57
2023/07/07 06:14:26;;;;;;;0.65;0.32;;;;;;;12.40;100.00;100922.47;5028843;28;20029;-59
2023/07/07 06:16:52;;;;;;;1.52;0.70;;;;;;;12.52;100.00;100920.09;5033489;28;20035;-55
2023/07/07 06:19:17;;;;;;;1.65;1.05;;;;;;;12.57;100.00;100913.19;5031530;28;20037;-58
2023/07/07 06:21:42;;;;;;;0.85;0.20;;;;;;;12.69;100.00;100921.44;5032178;28;20486;-53
2023/07/07 06:24:08;;;;;;;3.67;1.02;;;;;;;12.83;100.00;100912.56;5034286;28;20142;-54
2023/07/07 06:26:33;;;;;;;1.55;0.30;;;;;;;12.95;100.00;100914.66;5032479;28;20056;-57
2023/07/07 06:28:58;;;;;;;1.40;0.40;;;;;;;13.08;100.00;100912.06;5030844;28;20070;-52
2023/07/07 06:31:23;;;;;;;0.60;0.50;;;;;;;13.23;100.00;100915.41;5041736;28;20446;-55
2023/07/07 06:33:49;;;;;;;1.30;0.40;;;;;;;13.42;100.00;100921.06;5032282;28;20025;-51
2023/07/07 06:36:14;;;;;;;1.65;0.43;;;;;;;13.58;100.00;100912.72;5031688;28;20063;-57
2023/07/07 06:38:40;;;;;;;0.38;0.30;;;;;;;13.69;100.00;100917.47;5037233;28;20628;-60
2023/07/07 06:41:10;;;;;;;0.55;0.55;;;;;;;13.75;100.00;100910.50;5031309;28;20032;-55
2023/07/07 06:43:35;;;;;;;0.60;0.50;;;;;;;13.88;100.00;100915.06;5042126;28;20431;-57
2023/07/07 06:46:01;;;;;;;0.60;0.60;;;;;;;14.04;100.00;100909.31;5033189;28;20033;-53
2023/07/07 06:48:26;;;;;;;3.75;0.85;;;;;;;14.21;100.00;100907.09;5036336;28;20044;-56
2023/07/07 06:50:51;;;;;;;0.50;0.47;;;;;;;14.41;100.00;100915.09;5035449;28;20032;-56
2023/07/07 06:53:16;;;;;;;0.77;0.63;;;;;;;14.61;100.00;100915.94;5034173;28;20378;-53
2023/07/07 06:55:43;;;;;;;0.35;0.35;;;;;;;14.87;100.00;100916.09;5032295;28;20530;-55
2023/07/07 06:58:10;;;;;;;0.77;0.65;;;;;;;15.02;100.00;100917.53;5028693;28;20520;-56
2023/07/07 07:00:36;;;;;;;1.55;0.32;;;;;;;15.20;100.00;100914.16;5035632;28;20044;-56
2023/07/07 07:03:01;;;;;;;0.63;0.35;;;;;;;15.41;100.00;100909.56;5032492;28;20033;-56
2023/07/07 07:05:27;;;;;;;0.85;0.55;;;;;;;15.60;100.00;100910.50;5045979;28;20032;-56
2023/07/07 07:07:52;;;;;;;2.47;0.60;;;;;;;15.79;100.00;100898.91;5033859;28;20102;-59
2023/07/07 07:10:17;;;;;;;5.40;0.30;;;;;;;16.02;100.00;100894.84;5030773;28;20156;-59
2023/07/07 07:12:43;;;;;;;2.40;0.82;;;;;;;16.24;100.00;100895.31;5039649;28;20029;-59
2023/07/07 07:15:09;;;;;;;2.78;0.25;;;;;;;16.60;100.00;100897.25;5037730;28;20044;-58
2023/07/07 07:17:35;;;;;;;1.70;0.20;;;;;;;16.95;100.00;100891.38;5038103;28;20033;-60
2023/07/07 07:20:00;;;;;;;3.88;0.43;;;;;;;17.37;100.00;100886.97;5030186;28;20393;-58
2023/07/07 07:22:26;;;;;;;0.55;0.30;;;;;;;17.63;100.00;100876.91;5030434;28;20588;-57
2023/07/07 07:24:51;;;;;;;0.63;0.40;;;;;;;17.82;100.00;100883.88;5032802;28;20406;-58
2023/07/07 07:27:16;;;;;;;2.80;0.63;;;;;;;17.91;100.00;100879.00;5024511;28;20065;-59
2023/07/07 07:29:43;;;;;;;0.40;0.30;;;;;;;18.11;100.00;100876.00;5030394;28;20137;-56
2023/07/07 07:32:09;;;;;;;2.42;0.13;;;;;;;18.29;100.00;100867.84;5041390;28;20102;-57
2023/07/07 07:34:35;;;;;;;2.10;0.82;;;;;;;18.46;100.00;100875.22;5035846;28;20036;-50
2023/07/07 07:37:01;;;;;;;2.97;0.70;;;;;;;18.52;100.00;100882.34;5030287;28;20026;-59
2023/07/07 07:39:28;;;;;;;0.40;0.30;;;;;;;18.84;100.00;100880.09;5031320;28;20057;-50
2023/07/07 07:41:54;;;;;;;1.75;0.65;;;;;;;19.07;100.00;100881.94;5033672;28;20021;-53
2023/07/07 07:44:21;;;;;;;0.57;0.30;;;;;;;19.22;100.00;100868.00;5031280;28;20033;-52
2023/07/07 07:46:49;;;;;;;0.40;0.40;;;;;;;19.33;100.00;100869.81;5033878;28;20364;-57
2023/07/07 07:49:15;;;;;;;1.40;0.38;;;;;;;19.55;100.00;100866.47;5031523;28;20120;-57
2023/07/07 07:51:40;;;;;;;2.22;0.20;;;;;;;19.77;100.00;100875.53;5037094;28;20657;-58
2023/07/07 07:54:08;;;;;;;0.80;0.22;;;;;;;19.95;100.00;100870.94;5036204;28;20029;-58
2023/07/07 07:56:34;;;;;;;3.75;0.90;;;;;;;20.14;100.00;100866.97;5030842;28;20533;-58
2023/07/07 07:58:59;;;;;;;2.28;0.47;;;;;;;20.37;100.00;100865.97;5032829;28;20041;-59
2023/07/07 08:01:25;;;;;;;0.80;0.28;;;;;;;20.49;100.00;100863.16;5032244;28;20075;-60
2023/07/07 08:03:50;;;;;;;3.63;0.13;;;;;;;20.72;100.00;100856.78;5036239;28;20072;-58
2023/07/07 08:06:16;;;;;;;2.38;0.57;;;;;;;20.97;100.00;100859.00;5033118;28;20486;-54
2023/07/07 08:08:41;;;;;;;2.85;0.40;;;;;;;21.05;100.00;100855.06;5029460;28;20037;-58
2023/07/07 08:11:11;;;;;;;3.35;1.00;;;;;;;21.07;100.00;100853.72;5032701;28;20041;-61
2023/07/07 08:13:36;;;;;;;1.85;0.55;;;;;;;21.20;100.00;100849.84;5032939;28;20474;-60
2023/07/07 08:16:02;;;;;;;2.17;0.93;;;;;;;21.38;100.00;100853.28;5040649;28;20672;-63
2023/07/07 08:18:27;;;;;;;1.20;0.52;;;;;;;21.44;100.00;100855.78;5033404;28;20099;-63
2023/07/07 08:20:52;;;;;;;3.78;0.95;;;;;;;21.54;100.00;100853.19;5040065;28;20025;-58
2023/07/07 08:23:18;;;;;;;1.10;0.38;;;;;;;21.70;100.00;100861.44;5038081;28;20041;-55
2023/07/07 08:25:45;;;;;;;2.15;0.85;;;;;;;21.80;100.00;100852.63;5035635;28;20119;-62
2023/07/07 08:28:11;;;;;;;1.42;0.40;;;;;;;21.92;100.00;100853.25;5031503;28;20102;-60
2023/07/07 08:30:36;;;;;;;1.00;0.50;;;;;;;22.05;100.00;100852.03;5037089;28;20474;-48
2023/07/07 08:33:02;;;;;;;1.60;0.60;;;;;;;22.21;100.00;100851.88;5036565;28;20060;-58
2023/07/07 08:35:27;;;;;;;0.55;0.30;;;;;;;22.27;100.00;100850.03;5034285;28;20091;-56
2023/07/07 08:37:52;;;;;;;2.10;0.57;;;;;;;22.44;100.00;100841.78;5035563;28;20041;-54
2023/07/07 08:40:22;;;;;;;2.22;0.40;;;;;;;22.57;100.00;100843.19;5037599;28;20041;-57
2023/07/07 08:42:47;;;;;;;0.38;0.30;;;;;;;22.70;100.00;100837.31;5030768;28;20115;-59
2023/07/07 08:45:15;;;;;;;0.52;0.32;;;;;;;22.79;100.00;100838.41;5032783;28;20506;-58
2023/07/07 08:47:59;;;;;;;1.02;0.70;;;;;;;23.04;100.00;100842.34;5050709;28;20025;-60
2023/07/07 08:50:53;;;;;;;1.70;0.25;;;;;;;23.14;100.00;100831.56;5028874;28;20031;-57
2023/07/07 08:53:40;;;;;;;3.63;0.50;;;;;;;23.36;100.00;100836.75;5028718;28;20114;-57
2023/07/07 08:56:45;;;;;;;2.10;0.43;;;;;;;23.46;100.00;100835.94;5033322;28;20079;-57
2023/07/07 08:59:22;;;;;;;2.65;0.47;;;;;;;23.48;100.00;100828.38;5049641;28;20396;-61
2023/07/07 09:01:59;;;;;;;2.10;0.68;;;;;;;23.60;100.00;100831.66;5030599;28;20250;-55
2023/07/07 09:04:28;;;;;;;2.15;0.40;;;;;;;23.92;100.00;100822.47;5035980;28;20516;-61
2023/07/07 09:07:08;;;;;;;1.15;0.30;;;;;;;24.07;100.00;100822.47;5034267;28;20044;-58
2023/07/07 09:09:54;;;;;;;3.53;0.47;;;;;;;24.11;100.00;100826.25;5030503;28;20044;-58
2023/07/07 09:12:46;;;;;;;7.03;0.40;;;;;;;24.46;96.84;100827.28;5033591;28;20033;-60
2023/07/07 09:15:27;;;;;;;2.13;0.98;;;;;;;24.70;96.61;100818.53;5029750;28;20037;-55
2023/07/07 09:17:55;;;;;;;;;;;;;;;25.02;91.86;100824.34;5034630;28;20049;-58
2023/07/07 09:20:24;;;;;;;0.60;0.30;;;;;;;24.96;95.44;100819.22;5033605;28;20369;-58
2023/07/07 09:22:58;;;;;;;0.52;0.40;;;;;;;25.20;95.47;100824.84;5031627;28;20037;-53
2023/07/07 09:25:28;;;;;;;0.75;0.35;;;;;;;25.21;92.10;100823.75;5028237;28;20112;-57
2023/07/07 09:28:02;;;;;;;2.57;0.40;;;;;;;25.19;89.57;100820.50;5033638;28;20087;-57
2023/07/07 09:30:33;;;;;;;2.97;0.50;;;;;;;25.09;91.14;100818.63;5032806;28;20036;-60
2023/07/07 09:32:58;;;;;;;;;;;;;;;25.33;87.32;100815.28;5034661;28;20424;-56
2023/07/07 09:35:31;;;;;;;3.58;1.23;;;;;;;25.26;86.82;100809.34;5035940;28;19927;-59
2023/07/07 09:38:27;;;;;;;1.20;0.57;;;;;;;25.60;86.94;100806.66;5033957;28;20029;-61
2023/07/07 09:41:03;;;;;;;1.00;0.50;;;;;;;25.81;88.26;100810.00;5042495;28;20048;-54
2023/07/07 09:43:44;;;;;;;0.60;0.52;;;;;;;25.83;83.32;100808.63;5030505;28;20445;-59
2023/07/07 09:46:40;;;;;;;0.88;0.82;;;;;;;26.11;85.68;100817.09;5037165;28;20041;-48
2023/07/07 09:49:39;;;;;;;5.50;2.00;;;;;;;26.50;81.43;100810.69;5020129;28;20048;-52
2023/07/07 09:52:36;;;;;;;3.00;0.30;;;;;;;26.29;85.57;100813.63;5022064;28;20048;-51
2023/07/07 09:55:09;;;;;;;0.73;0.20;;;;;;;26.26;85.66;100807.97;5028956;28;20045;-59
2023/07/07 09:57:39;;;;;;;1.23;0.50;;;;;;;26.32;85.49;100804.91;5025276;28;20374;-53
2023/07/07 10:00:07;;;;;;;2.33;0.57;;;;;;;26.33;84.46;100805.72;5026533;28;20108;-60
2023/07/07 10:02:33;;;;;;;6.45;1.15;;;;;;;26.27;84.36;100813.13;5028933;28;20115;-58
2023/07/07 10:05:06;;;;;;;1.25;0.45;;;;;;;26.43;82.44;100811.03;5024621;28;21570;-52
2023/07/07 10:07:36;;;;;;;1.65;0.40;;;;;;;26.48;81.59;100804.72;5027683;28;20043;-60
2023/07/07 10:10:03;;;;;;;2.80;0.88;;;;;;;26.70;80.79;100798.81;5025966;28;20140;-62
2023/07/07 10:12:29;;;;;;;4.32;0.63;;;;;;;26.83;81.70;100800.00;5027586;28;20028;-55
2023/07/07 10:14:55;;;;;;;2.95;0.47;;;;;;;27.17;80.07;100797.06;5036353;28;20032;-53
2023/07/07 10:17:30;;;;;;;1.30;0.40;;;;;;;27.18;79.26;100796.81;5029387;28;20028;-57
2023/07/07 10:20:00;;;;;;;1.98;0.43;;;;;;;26.97;78.21;100798.16;5034263;28;20565;-59
2023/07/07 10:22:25;;;;;;;2.88;0.32;;;;;;;27.16;79.78;100792.75;5031242;28;20033;-61
2023/07/07 10:24:51;;;;;;;2.03;0.60;;;;;;;27.43;79.86;100792.06;5029406;28;20502;-60
2023/07/07 10:27:21;;;;;;;2.25;0.68;;;;;;;27.51;79.72;100791.38;5027172;28;20024;-63
2023/07/07 10:29:47;;;;;;;4.75;1.08;;;;;;;27.31;76.21;100786.25;5034172;28;20056;-55
2023/07/07 10:32:20;;;;;;;1.63;0.65;;;;;;;27.26;77.12;100786.34;5028644;28;20072;-55
2023/07/07 10:34:48;;;;;;;3.05;0.60;;;;;;;27.52;76.46;100793.03;5031299;28;20021;-62
2023/07/07 10:37:19;;;;;;;2.17;0.60;;;;;;;27.71;72.04;100789.44;5029648;28;20323;-49
2023/07/07 10:39:48;;;;;;;;;;;;;;;27.75;69.64;100785.00;5043505;28;20052;-50
2023/07/07 10:42:13;;;;;;;1.45;0.40;;;;;;;27.59;74.01;100782.53;5035915;28;19925;-61
2023/07/07 10:44:38;;;;;;;2.53;0.55;;;;;;;27.70;72.44;100788.66;5030792;28;20040;-56
2023/07/07 10:47:04;;;;;;;2.13;0.85;;;;;;;27.78;73.13;100778.97;5034576;28;20400;-61
2023/07/07 10:49:31;;;;;;;0.50;0.50;;;;;;;28.16;73.53;100779.66;5028730;28;20029;-58
2023/07/07 10:52:13;;;;;;;1.90;0.80;;;;;;;28.42;72.66;100781.88;5031524;28;20078;-60
2023/07/07 10:55:04;;;;;;;3.72;0.88;;;;;;;28.60;72.18;100780.97;5024455;28;20045;-61
2023/07/07 10:57:45;;;;;;;0.82;0.47;;;;;;;28.72;71.51;100779.66;5033774;28;20029;-61
2023/07/07 11:00:31;;;;;;;3.58;0.73;;;;;;;28.66;70.34;100776.25;5029644;28;20889;-57
2023/07/07 11:03:24;;;;;;;5.15;0.93;;;;;;;28.67;71.83;100773.19;5025874;28;20073;-54
2023/07/07 11:06:00;;;;;;;4.13;0.40;;;;;;;28.92;70.21;100779.22;5025731;28;20122;-55
2023/07/07 11:08:48;;;;;;;0.73;0.73;;;;;;;29.00;71.06;100770.28;5033297;28;20048;-54
2023/07/07 11:11:35;;;;;;;0.88;0.52;;;;;;;29.11;69.07;100770.91;5028261;28;20046;-54
2023/07/07 11:14:11;;;;;;;2.75;0.57;;;;;;;29.31;68.87;100770.41;5038282;28;20634;-52
2023/07/07 11:16:55;;;;;;;3.85;1.13;;;;;;;29.26;68.83;100767.81;5025894;28;20030;-60
2023/07/07 11:19:26;;;;;;;3.08;0.95;;;;;;;29.46;66.31;100773.91;5031624;28;20041;-51
2023/07/07 11:21:52;;;;;;;1.83;1.35;;;;;;;29.47;64.75;100761.84;5036121;28;20033;-57
2023/07/07 11:24:35;;;;;;;0.90;0.40;;;;;;;29.52;63.42;100764.44;5029406;28;20041;-63
2023/07/07 11:27:25;;;;;;;13.38;1.67;;;;;;;29.74;64.18;100774.56;5032159;28;20364;-54
2023/07/07 11:29:56;;;;;;;4.55;1.65;;;;;;;29.94;61.91;100759.56;5025694;28;20219;-58
2023/07/07 11:32:48;;;;;;;11.57;1.30;;;;;;;30.37;61.53;100757.03;5038440;28;20043;-52